Time;durP1;ratioP1;P1;durP2;ratioP2;P2;SDS_P1;SDS_P2;PMS_P1;PMS_P2;Temp;Humidity;BMP_temperature;BMP_pressure;BME280_temperature;BME280_humidity;BME280_pressure;Samples;Min_cycle;Max_cycle;Signal;HPM_P1;HPM_P2
2021/12/27 00:00:53;;;;;;;18.98;9.83;;;;;;;-5.89;64.22;99674.92;1746167;81;20996;-42
2021/12/27 00:03:22;;;;;;;23.00;9.95;;;;;;;-5.70;63.98;99670.91;1755092;81;21279;-42
2021/12/27 00:05:49;;;;;;;21.12;10.93;;;;;;;-5.70;63.98;99670.91;1735044;80;21514;-42
2021/12/27 00:08:16;;;;;;;20.82;9.85;;;;;;;-5.55;63.67;99670.30;1737427;81;21044;-42
2021/12/27 00:10:42;;;;;;;20.85;10.65;;;;;;;-5.41;63.36;99674.95;1750224;81;21158;-42
2021/12/27 00:13:09;;;;;;;19.48;10.03;;;;;;;-5.39;63.34;99680.80;1754229;81;21028;-42
2021/12/27 00:15:39;;;;;;;18.07;9.80;;;;;;;-5.30;63.55;99683.80;1735118;81;21858;-42
2021/12/27 00:18:06;;;;;;;17.90;9.40;;;;;;;-5.20;63.30;99679.95;1736552;80;20997;-42
2021/12/27 00:20:34;;;;;;;17.55;9.53;;;;;;;-5.15;63.27;99681.33;1758206;81;21072;-42
2021/12/27 00:23:00;;;;;;;20.60;11.08;;;;;;;-5.09;63.23;99683.50;1754475;81;21737;-42
2021/12/27 00:25:28;;;;;;;18.60;10.13;;;;;;;-5.11;63.24;99685.06;1728525;81;21027;-42
2021/12/27 00:27:56;;;;;;;21.50;10.38;;;;;;;-4.97;62.76;99689.42;1728079;81;21511;-42
2021/12/27 00:32:00;;;;;;;19.40;10.05;;;;;;;-4.88;62.69;99688.72;1852666;76;23084;-40
2021/12/27 00:34:27;;;;;;;22.77;10.90;;;;;;;-4.92;62.68;99696.88;1832810;75;21580;-41
2021/12/27 00:36:54;;;;;;;18.73;10.45;;;;;;;-4.79;62.55;99693.58;1830539;77;21111;-40
2021/12/27 00:39:21;;;;;;;19.52;10.60;;;;;;;-4.74;62.51;99698.36;1827582;77;20979;-40
2021/12/27 00:41:47;;;;;;;19.37;10.15;;;;;;;-4.64;62.38;99693.68;1826496;77;21482;-40
2021/12/27 00:44:14;;;;;;;22.55;10.88;;;;;;;-4.64;62.34;99689.72;1858975;75;20959;-41
2021/12/27 00:46:41;;;;;;;18.73;9.58;;;;;;;-4.65;62.40;99689.47;1858763;77;21006;-41
2021/12/27 00:49:08;;;;;;;20.43;11.18;;;;;;;-4.64;62.57;99688.39;1850829;77;21178;-40
2021/12/27 00:51:34;;;;;;;18.40;9.68;;;;;;;-4.58;62.58;99694.00;1857687;77;20944;-40
2021/12/27 00:54:01;;;;;;;19.65;9.78;;;;;;;-4.50;62.44;99695.66;1848577;77;20986;-41
2021/12/27 00:56:27;;;;;;;16.50;9.45;;;;;;;-4.46;62.37;99695.97;1831995;75;21015;-40
2021/12/27 00:58:54;;;;;;;17.73;9.13;;;;;;;-4.51;62.17;99695.41;1826196;77;21352;-40
2021/12/27 01:01:21;;;;;;;18.50;9.93;;;;;;;-4.56;62.28;99693.24;1843900;77;21135;-41
2021/12/27 01:03:47;;;;;;;17.85;9.53;;;;;;;-4.68;62.60;99696.56;1856390;77;20975;-40
2021/12/27 01:06:14;;;;;;;16.32;9.85;;;;;;;-4.70;62.78;99689.42;1857955;77;21020;-41
2021/12/27 01:08:41;;;;;;;19.32;9.73;;;;;;;-4.68;63.05;99688.63;1830029;77;20916;-41
2021/12/27 01:11:25;;;;;;;19.98;10.93;;;;;;;-4.68;63.05;99692.08;1857394;77;21006;-41
2021/12/27 01:14:10;;;;;;;17.12;9.63;;;;;;;-4.64;63.20;99693.68;1832458;77;21510;-41
2021/12/27 01:16:28;;;;;;;19.20;9.30;;;;;;;-4.65;63.35;99694.76;1831767;77;21071;-41
2021/12/27 01:18:55;;;;;;;23.83;10.20;;;;;;;-4.63;63.41;99695.28;1833989;77;20956;-41
2021/12/27 01:21:23;;;;;;;21.25;10.43;;;;;;;-4.62;63.34;99696.89;1850154;77;21011;-41
2021/12/27 01:23:50;;;;;;;17.42;9.68;;;;;;;-4.66;63.61;99701.09;1846716;77;21281;-40
2021/12/27 01:26:17;;;;;;;20.95;9.85;;;;;;;-4.61;63.59;99704.58;1831498;77;21153;-40
2021/12/27 01:28:45;;;;;;;18.17;10.28;;;;;;;-4.58;63.67;99704.06;1842072;77;20901;-41
2021/12/27 01:31:11;;;;;;;19.50;10.10;;;;;;;-4.45;63.56;99705.48;1853025;77;21571;-41
2021/12/27 01:33:38;;;;;;;19.10;10.50;;;;;;;-4.40;63.28;99704.20;1847955;77;21056;-40
2021/12/27 01:36:08;;;;;;;17.00;8.98;;;;;;;-4.39;63.37;99711.09;1845815;77;21548;-40
2021/12/27 01:38:36;;;;;;;17.62;9.20;;;;;;;-4.37;63.41;99708.20;1816543;77;21126;-41
2021/12/27 01:41:04;;;;;;;16.60;9.58;;;;;;;-4.37;63.43;99705.56;1841016;76;21017;-41
2021/12/27 01:43:32;;;;;;;21.07;10.63;;;;;;;-4.40;63.55;99709.49;1855897;77;20970;-41
2021/12/27 01:46:09;;;;;;;15.50;7.60;;;;;;;-4.40;63.73;99705.52;1828134;77;21069;-41
2021/12/27 01:48:39;;;;;;;20.10;9.93;;;;;;;-4.37;63.88;99705.56;1820909;77;21495;-40
2021/12/27 01:51:12;;;;;;;16.42;9.53;;;;;;;-4.39;63.96;99700.51;1831046;76;21124;-40
2021/12/27 01:53:41;;;;;;;18.37;8.35;;;;;;;-4.39;64.16;99704.48;1834976;77;20922;-40
2021/12/27 01:56:10;;;;;;;19.48;9.08;;;;;;;-4.34;64.35;99707.16;1832056;77;20973;-40
2021/12/27 01:58:37;;;;;;;17.77;9.78;;;;;;;-4.37;64.44;99702.39;1835978;77;20989;-41
2021/12/27 02:01:06;;;;;;;16.10;10.00;;;;;;;-4.41;64.50;99716.66;1831659;77;21892;-41
2021/12/27 02:03:34;;;;;;;17.85;9.23;;;;;;;-4.43;64.56;99716.10;1846994;77;21851;-41
2021/12/27 02:06:01;;;;;;;17.40;9.38;;;;;;;-4.47;64.89;99716.34;1836856;77;21507;-40
2021/12/27 02:08:28;;;;;;;18.82;9.93;;;;;;;-4.40;64.97;99715.59;1829836;77;20998;-41
2021/12/27 02:10:55;;;;;;;19.45;8.98;;;;;;;-4.29;65.12;99703.76;1814619;79;20966;-40
2021/12/27 02:13:23;;;;;;;17.12;8.75;;;;;;;-4.20;65.09;99705.68;1836972;77;21626;-40
2021/12/27 02:15:51;;;;;;;17.05;9.40;;;;;;;-4.17;65.06;99705.19;1826796;78;21130;-40
2021/12/27 02:18:18;;;;;;;16.15;8.58;;;;;;;-4.11;65.13;99700.17;1823360;77;21515;-40
2021/12/27 02:20:45;;;;;;;15.20;8.10;;;;;;;-4.03;65.02;99704.22;1847588;77;20923;-41
2021/12/27 02:23:15;;;;;;;15.90;8.40;;;;;;;-4.33;64.96;99643.93;1847494;77;20986;-40
2021/12/27 02:25:46;;;;;;;;;;;;;;;-3.85;65.09;99706.95;1850640;77;21002;-41
2021/12/27 02:28:13;;;;;;;14.33;8.60;;;;;;;-3.73;64.78;99712.34;1835945;77;21148;-41
2021/12/27 02:30:41;;;;;;;15.00;8.40;;;;;;;-3.74;64.82;99712.59;1842454;77;21778;-40
2021/12/27 02:33:09;;;;;;;15.40;8.60;;;;;;;-3.63;64.69;99710.27;1833056;78;21062;-41
2021/12/27 02:35:45;;;;;;;16.27;8.85;;;;;;;-3.52;64.42;99715.34;1814426;78;21019;-40
2021/12/27 02:38:16;;;;;;;19.90;9.50;;;;;;;-3.47;64.14;99709.80;1813518;78;21051;-41
2021/12/27 02:40:43;;;;;;;14.90;9.00;;;;;;;-3.40;64.09;99708.52;1833265;78;21107;-41
2021/12/27 02:43:16;;;;;;;15.40;8.30;;;;;;;-3.35;63.90;99705.88;1877491;76;21502;-40
2021/12/27 02:45:48;;;;;;;12.65;7.87;;;;;;;-3.26;63.78;99710.95;1845267;76;20869;-41
2021/12/27 02:48:17;;;;;;;14.93;8.73;;;;;;;-3.28;63.48;99711.72;1818288;77;21030;-41
2021/12/27 02:50:45;;;;;;;16.17;8.80;;;;;;;-3.36;63.16;99716.21;1829043;78;21002;-41
2021/12/27 02:53:11;;;;;;;18.67;9.88;;;;;;;-3.45;63.46;99717.77;1833379;78;21066;-41
2021/12/27 02:55:39;;;;;;;12.60;8.38;;;;;;;-3.42;63.66;99713.27;1833300;78;20908;-41
2021/12/27 02:58:06;;;;;;;15.40;8.35;;;;;;;-3.37;63.60;99719.91;1816937;77;21050;-41
2021/12/27 03:00:38;;;;;;;15.15;9.10;;;;;;;-3.30;63.52;99714.38;1818219;77;21020;-41
2021/12/27 03:03:05;;;;;;;17.73;9.30;;;;;;;-3.25;63.46;99718.37;1823752;76;21004;-41
2021/12/27 03:05:32;;;;;;;18.55;9.73;;;;;;;-3.19;63.51;99722.09;1844637;76;21168;-41
2021/12/27 03:08:00;;;;;;;17.10;9.85;;;;;;;-3.09;63.26;99723.45;1810023;76;20947;-41
2021/12/27 03:10:31;;;;;;;21.90;11.08;;;;;;;-3.05;63.17;99723.75;1820106;78;21082;-41
2021/12/27 03:13:01;;;;;;;18.60;10.58;;;;;;;-2.98;63.08;99727.46;1830883;78;20998;-41
2021/12/27 03:15:27;;;;;;;18.95;10.38;;;;;;;-2.92;62.85;99725.09;1801793;78;20975;-41
2021/12/27 03:17:54;;;;;;;20.55;11.00;;;;;;;-2.93;62.50;99726.95;1822484;77;21813;-41
2021/12/27 03:20:25;;;;;;;16.85;10.20;;;;;;;-3.01;62.63;99730.65;1837570;77;20979;-41
2021/12/27 03:22:52;;;;;;;18.70;10.68;;;;;;;-3.00;62.77;99724.29;1813158;78;20982;-41
2021/12/27 03:25:22;;;;;;;17.32;10.32;;;;;;;-2.93;62.63;99728.80;1814237;78;20999;-41
2021/12/27 03:27:49;;;;;;;20.10;9.25;;;;;;;-2.93;62.61;99728.27;1763062;79;21039;-41
2021/12/27 03:30:20;;;;;;;16.30;9.85;;;;;;;-2.90;62.59;99737.55;1793031;78;21133;-41
2021/12/27 03:32:47;;;;;;;17.20;10.03;;;;;;;-2.89;62.65;99738.62;1779258;79;20945;-41
2021/12/27 03:35:17;;;;;;;17.10;9.85;;;;;;;-2.81;62.54;99738.10;1808140;79;20976;-40
2021/12/27 03:37:47;;;;;;;20.77;9.95;;;;;;;-2.78;62.23;99741.58;1809971;78;21004;-41
2021/12/27 03:40:17;;;;;;;19.27;10.43;;;;;;;-2.82;62.08;99737.06;1795979;78;21478;-41
2021/12/27 03:42:49;;;;;;;18.82;10.18;;;;;;;-2.84;62.06;99739.97;1773311;80;21109;-41
2021/12/27 03:45:12;;;;;;;18.32;10.32;;;;;;;-2.85;62.31;99745.00;1786182;80;21008;-41
2021/12/27 03:47:38;;;;;;;16.57;9.48;;;;;;;-2.78;62.24;99752.72;1768755;80;21487;-40
2021/12/27 03:50:07;;;;;;;16.12;8.88;;;;;;;-2.82;62.10;99750.33;1788588;78;21022;-41
2021/12/27 03:52:34;;;;;;;16.15;9.50;;;;;;;-2.88;62.22;99752.16;1793913;78;21016;-41
2021/12/27 03:55:01;;;;;;;17.17;10.05;;;;;;;-2.98;62.47;99756.11;1788425;78;21143;-41
2021/12/27 03:57:28;;;;;;;18.10;9.13;;;;;;;-2.98;62.79;99750.01;1786674;78;21494;-41
2021/12/27 04:02:37;;;;;;;16.97;9.90;;;;;;;-2.85;62.70;99752.95;1688501;80;21019;-41
2021/12/27 04:05:08;;;;;;;19.55;10.23;;;;;;;-2.77;62.49;99758.30;1779347;80;21071;-41
2021/12/27 04:07:34;;;;;;;15.83;9.00;;;;;;;-2.78;62.37;99759.34;1806394;78;21176;-41
2021/12/27 04:10:02;;;;;;;15.78;9.40;;;;;;;-2.73;62.17;99755.38;1766219;80;21027;-41
2021/12/27 04:12:29;;;;;;;14.98;8.73;;;;;;;-2.79;62.21;99749.79;1789903;78;21462;-41
2021/12/27 04:14:56;;;;;;;14.78;8.85;;;;;;;-2.69;62.07;99761.75;1814923;78;20996;-41
2021/12/27 04:17:23;;;;;;;17.87;9.28;;;;;;;-2.66;62.07;99763.88;1800261;78;21083;-41
2021/12/27 04:19:50;;;;;;;18.12;9.13;;;;;;;-2.64;62.13;99772.37;1800157;78;21129;-41
2021/12/27 04:22:18;;;;;;;14.07;8.03;;;;;;;-2.60;61.89;99774.77;1810130;78;20999;-41
2021/12/27 04:24:45;;;;;;;14.85;8.93;;;;;;;-2.67;61.89;99778.22;1821171;78;20937;-41
2021/12/27 04:27:11;;;;;;;17.05;9.10;;;;;;;-2.73;62.10;99781.92;1802297;78;21056;-41
2021/12/27 04:29:38;;;;;;;15.58;8.68;;;;;;;-2.75;62.27;99781.37;1808193;78;21499;-41
2021/12/27 04:32:06;;;;;;;16.55;7.95;;;;;;;-2.72;62.33;99788.30;1792771;78;21094;-41
2021/12/27 04:34:34;;;;;;;17.48;9.88;;;;;;;-2.65;62.10;99785.38;1770954;79;21003;-41
2021/12/27 04:37:02;;;;;;;17.02;9.25;;;;;;;-2.69;62.04;99793.59;1770778;79;21023;-40
2021/12/27 04:39:29;;;;;;;16.07;9.03;;;;;;;-2.73;62.12;99791.20;1770929;79;20888;-40
2021/12/27 04:41:56;;;;;;;17.75;9.20;;;;;;;-2.79;62.33;99798.34;1770842;79;21007;-41
2021/12/27 04:44:22;;;;;;;15.85;9.38;;;;;;;-2.80;62.29;99798.59;1776648;79;21915;-41
2021/12/27 04:46:49;;;;;;;14.95;8.13;;;;;;;-2.83;62.57;99801.78;1786485;79;20893;-41
2021/12/27 04:49:15;;;;;;;15.53;8.45;;;;;;;-2.87;62.51;99804.70;1771957;79;20944;-41
2021/12/27 04:51:43;;;;;;;15.00;8.40;;;;;;;-2.96;62.77;99804.94;1790139;78;21510;-41
2021/12/27 04:54:11;;;;;;;14.47;7.67;;;;;;;-3.02;62.72;99804.11;1775080;79;21486;-41
2021/12/27 04:56:37;;;;;;;17.65;9.15;;;;;;;-3.13;63.03;99809.09;1778506;78;21078;-41
2021/12/27 04:59:04;;;;;;;11.93;7.95;;;;;;;-3.26;63.35;99807.72;1800004;79;20947;-41
2021/12/27 05:01:30;;;;;;;13.50;8.83;;;;;;;-3.30;63.68;99807.97;1800231;79;20948;-41
2021/12/27 05:03:56;;;;;;;13.30;8.00;;;;;;;-3.31;63.82;99809.02;1797847;79;21478;-41
2021/12/27 05:06:23;;;;;;;13.50;8.60;;;;;;;-3.31;63.88;99810.34;1792422;79;21046;-41
2021/12/27 05:08:53;;;;;;;16.05;9.75;;;;;;;-3.33;63.98;99819.59;1797825;78;21133;-40
2021/12/27 05:11:18;;;;;;;16.80;9.03;;;;;;;-3.35;64.20;99815.89;1806525;79;21000;-41
2021/12/27 05:13:46;;;;;;;12.53;8.38;;;;;;;-3.31;64.30;99820.95;1802503;79;21600;-41
2021/12/27 05:16:14;;;;;;;18.37;8.95;;;;;;;-3.31;64.32;99820.14;1793723;79;21015;-41
2021/12/27 05:18:41;;;;;;;17.00;9.03;;;;;;;-3.23;64.34;99817.80;1785163;79;20996;-41
2021/12/27 05:21:07;;;;;;;15.15;8.65;;;;;;;-3.25;64.18;99823.10;1781136;78;21994;-41
2021/12/27 05:23:36;;;;;;;17.60;9.23;;;;;;;-3.32;64.22;99825.17;1802416;79;20959;-41
2021/12/27 05:26:02;;;;;;;15.10;9.18;;;;;;;-3.39;64.42;99834.69;1802660;79;20995;-41
2021/12/27 05:28:31;;;;;;;17.12;8.68;;;;;;;-3.44;64.73;99835.98;1788844;79;21818;-41
2021/12/27 05:30:57;;;;;;;19.30;9.83;;;;;;;-3.38;64.85;99846.87;1779600;79;21019;-41
2021/12/27 05:33:24;;;;;;;16.23;8.73;;;;;;;-3.33;64.76;99852.20;1809578;79;21094;-41
2021/12/27 05:35:50;;;;;;;15.98;8.75;;;;;;;-3.20;64.53;99857.08;1796574;79;20976;-41
2021/12/27 05:38:17;;;;;;;16.10;8.78;;;;;;;-3.09;64.08;99849.95;1781931;78;21100;-41
2021/12/27 05:40:44;;;;;;;18.95;8.38;;;;;;;-3.05;63.85;99851.58;1768386;80;21024;-41
2021/12/27 05:43:10;;;;;;;14.60;9.03;;;;;;;-2.97;63.63;99854.53;1799949;77;21043;-41
2021/12/27 05:45:37;;;;;;;15.68;8.55;;;;;;;-2.91;63.49;99859.33;1758633;80;21126;-41
2021/12/27 05:48:05;;;;;;;15.48;8.98;;;;;;;-2.90;63.33;99862.23;1762404;79;21029;-40
2021/12/27 05:50:33;;;;;;;15.18;8.98;;;;;;;-2.91;63.35;99867.29;1821348;77;20952;-41
2021/12/27 05:53:01;;;;;;;16.25;8.58;;;;;;;-2.89;63.45;99869.14;1760026;80;21079;-41
2021/12/27 05:55:28;;;;;;;14.47;9.15;;;;;;;-2.88;63.37;99865.44;1759830;80;21059;-41
2021/12/27 05:57:55;;;;;;;15.40;8.48;;;;;;;-2.87;63.10;99869.17;1758284;81;21160;-41
2021/12/27 06:00:21;;;;;;;13.72;7.92;;;;;;;-2.85;62.95;99868.89;1773669;78;21215;-41
2021/12/27 06:02:51;;;;;;;17.12;8.63;;;;;;;-2.88;63.21;99876.05;1817018;79;20970;-41
2021/12/27 06:05:18;;;;;;;16.17;8.88;;;;;;;-2.84;62.70;99881.10;1818309;78;21022;-41
2021/12/27 06:07:44;;;;;;;16.65;8.85;;;;;;;-2.88;62.80;99880.03;1844629;77;21026;-41
2021/12/27 06:10:11;;;;;;;15.35;8.23;;;;;;;-2.87;62.68;99879.78;1851802;77;21075;-41
2021/12/27 06:12:38;;;;;;;21.48;9.53;;;;;;;-2.87;62.84;99878.98;1788561;77;21507;-41
2021/12/27 06:15:07;;;;;;;14.95;9.70;;;;;;;-2.85;62.77;99876.84;1808660;77;21532;-41
2021/12/27 06:17:37;;;;;;;15.65;8.63;;;;;;;-2.82;62.67;99882.98;1801300;79;20976;-41
2021/12/27 06:20:08;;;;;;;15.72;9.20;;;;;;;-2.86;62.48;99885.36;1765832;81;21036;-41
2021/12/27 06:22:37;;;;;;;16.25;9.20;;;;;;;-2.92;62.50;99882.93;1805892;79;21576;-41
2021/12/27 06:25:04;;;;;;;17.65;9.75;;;;;;;-3.04;62.75;99888.95;1772565;79;21015;-41
2021/12/27 06:27:33;;;;;;;16.50;9.35;;;;;;;-3.10;62.99;99887.59;1794268;77;21083;-41
2021/12/27 06:30:00;;;;;;;19.77;10.32;;;;;;;-3.20;63.13;99887.56;1772488;78;21503;-41
2021/12/27 06:32:26;;;;;;;18.25;11.30;;;;;;;-3.26;63.33;99894.41;1812666;79;21080;-41
2021/12/27 06:34:53;;;;;;;21.20;11.53;;;;;;;-3.27;63.68;99894.94;1808878;77;21130;-41
2021/12/27 06:37:20;;;;;;;18.65;11.33;;;;;;;-3.22;63.59;99900.27;1810357;77;21001;-41
2021/12/27 06:39:47;;;;;;;19.30;10.82;;;;;;;-3.22;63.34;99901.59;1789262;78;21515;-41
2021/12/27 06:42:13;;;;;;;19.48;11.35;;;;;;;-3.29;63.38;99906.30;1788867;80;22130;-41
2021/12/27 06:44:40;;;;;;;23.65;11.20;;;;;;;-3.40;63.55;99902.01;1807333;78;21016;-41
2021/12/27 06:47:07;;;;;;;18.50;10.45;;;;;;;-3.52;63.92;99902.70;1821116;78;21125;-41
2021/12/27 06:49:34;;;;;;;17.23;11.00;;;;;;;-3.51;64.17;99912.26;1808187;78;20922;-41
2021/12/27 06:52:00;;;;;;;19.67;11.18;;;;;;;-3.83;64.32;99849.22;1839990;78;20945;-41
2021/12/27 06:54:27;;;;;;;17.80;10.23;;;;;;;-3.37;64.24;99913.42;1821177;78;21524;-41
2021/12/27 06:56:54;;;;;;;19.62;10.48;;;;;;;-3.37;64.00;99918.72;1789093;78;21262;-41
2021/12/27 06:59:21;;;;;;;21.93;10.80;;;;;;;-3.37;63.86;99915.27;1788915;80;21612;-41
2021/12/27 07:01:48;;;;;;;19.75;10.88;;;;;;;-3.41;63.79;99918.96;1790782;77;21907;-41
2021/12/27 07:04:14;;;;;;;18.62;10.75;;;;;;;-3.46;63.74;99926.88;1820435;77;21598;-41
2021/12/27 07:06:42;;;;;;;18.45;10.35;;;;;;;-3.61;63.90;99928.88;1815520;78;21605;-41
2021/12/27 07:09:08;;;;;;;17.90;10.78;;;;;;;-3.71;64.36;99934.08;1816358;77;21096;-40
2021/12/27 07:11:36;;;;;;;18.17;10.18;;;;;;;-3.71;64.46;99935.93;1814311;78;21185;-41
2021/12/27 07:14:03;;;;;;;17.30;10.65;;;;;;;-3.73;64.71;99934.08;1810935;77;20927;-40
2021/12/27 07:16:30;;;;;;;19.75;10.75;;;;;;;-3.67;64.59;99937.02;1827898;77;20977;-40
2021/12/27 07:18:57;;;;;;;18.05;10.35;;;;;;;-3.63;64.69;99943.44;1828741;77;21575;-40
2021/12/27 07:21:24;;;;;;;17.48;10.28;;;;;;;-3.63;64.60;99943.44;1811823;78;21056;-41
2021/12/27 07:23:50;;;;;;;17.45;10.13;;;;;;;-3.66;64.34;99942.60;1791464;78;21201;-41
2021/12/27 07:26:17;;;;;;;17.42;10.18;;;;;;;-3.76;64.57;99943.31;1808853;78;21010;-41
2021/12/27 07:28:44;;;;;;;19.25;9.85;;;;;;;-3.76;64.72;99942.51;1793364;77;20993;-41
2021/12/27 07:31:12;;;;;;;15.55;9.13;;;;;;;-3.77;64.61;99950.98;1818964;78;21187;-42
2021/12/27 07:33:38;;;;;;;15.48;9.45;;;;;;;-3.86;64.70;99942.41;1816577;77;21077;-41
2021/12/27 07:36:07;;;;;;;18.27;9.00;;;;;;;-3.98;64.92;99941.25;1796669;79;21197;-41
2021/12/27 07:38:36;;;;;;;14.95;9.35;;;;;;;-4.08;65.28;99947.25;1809426;78;20957;-41
2021/12/27 07:41:02;;;;;;;13.10;8.63;;;;;;;-4.14;65.42;99940.30;1784626;79;20966;-42
2021/12/27 07:43:29;;;;;;;17.40;9.58;;;;;;;-4.14;65.61;99941.62;1784785;79;20971;-42
2021/12/27 07:45:55;;;;;;;14.78;9.30;;;;;;;-4.10;65.61;99945.36;1787402;79;21026;-41
2021/12/27 07:48:23;;;;;;;15.65;9.33;;;;;;;-4.10;65.51;99942.72;1786791;77;21951;-41
2021/12/27 07:50:49;;;;;;;17.10;8.70;;;;;;;-4.05;65.92;99944.09;1805499;79;20973;-41
2021/12/27 07:53:16;;;;;;;13.93;8.43;;;;;;;-3.87;65.61;99947.45;1802256;78;20990;-41
2021/12/27 07:55:43;;;;;;;14.75;8.60;;;;;;;-3.78;65.24;99949.41;1799221;79;20971;-41
2021/12/27 07:58:10;;;;;;;20.23;10.32;;;;;;;-3.69;64.81;99955.84;1811926;78;20998;-41
2021/12/27 08:00:37;;;;;;;15.98;10.18;;;;;;;-3.57;64.89;99954.33;1787627;79;21153;-41
2021/12/27 08:03:03;;;;;;;19.98;11.20;;;;;;;-3.48;64.68;99959.97;1798893;79;20883;-41
2021/12/27 08:05:30;;;;;;;20.17;11.35;;;;;;;-3.46;63.97;99953.38;1793287;78;21455;-41
2021/12/27 08:07:58;;;;;;;18.73;11.10;;;;;;;-3.56;64.04;99962.56;1818473;78;21005;-41
2021/12/27 08:10:25;;;;;;;19.48;11.55;;;;;;;-3.63;64.19;99958.78;1801587;79;21039;-41
2021/12/27 08:12:53;;;;;;;19.03;11.23;;;;;;;-3.58;64.37;99960.68;1791820;79;20940;-41
2021/12/27 08:15:20;;;;;;;17.95;10.82;;;;;;;-3.48;64.50;99952.81;1796063;79;20954;-41
2021/12/27 08:17:46;;;;;;;18.40;10.40;;;;;;;-3.38;64.28;99951.58;1764400;81;20916;-41
2021/12/27 08:20:14;;;;;;;16.95;10.50;;;;;;;-3.24;64.14;99954.06;1813321;78;21003;-42
2021/12/27 08:22:40;;;;;;;16.97;9.95;;;;;;;-3.14;63.87;99958.64;1796219;78;21026;-42
2021/12/27 08:25:08;;;;;;;18.50;11.60;;;;;;;-3.12;63.49;99958.67;1775189;79;21093;-42
2021/12/27 08:27:38;;;;;;;16.10;9.68;;;;;;;-3.10;63.09;99964.50;1796592;79;21615;-41
2021/12/27 08:30:06;;;;;;;18.67;10.55;;;;;;;-3.13;63.05;99954.94;1775804;79;20932;-41
2021/12/27 08:32:36;;;;;;;19.55;10.53;;;;;;;-3.12;62.92;99964.50;1779350;79;20921;-41
2021/12/27 08:35:05;;;;;;;16.15;10.45;;;;;;;-3.13;62.83;99963.70;1785106;80;21011;-41
2021/12/27 08:37:31;;;;;;;17.95;11.30;;;;;;;-3.03;62.94;99959.52;1773140;78;21502;-42
2021/12/27 08:39:58;;;;;;;21.75;11.63;;;;;;;-2.90;62.86;99962.52;1801834;78;21000;-41
2021/12/27 08:42:25;;;;;;;20.37;11.22;;;;;;;-2.88;62.58;99963.59;1776079;78;20991;-41
2021/12/27 08:44:52;;;;;;;21.50;12.65;;;;;;;-2.92;62.59;99953.23;1795589;78;21067;-42
2021/12/27 08:47:19;;;;;;;20.02;12.07;;;;;;;-2.90;62.77;99947.92;1790517;80;21020;-41
2021/12/27 08:49:46;;;;;;;21.02;11.55;;;;;;;-2.90;62.48;99943.14;1787120;78;21151;-41
2021/12/27 08:52:12;;;;;;;18.15;10.75;;;;;;;-2.89;62.41;99937.59;1792824;78;21469;-41
2021/12/27 08:54:39;;;;;;;20.88;12.88;;;;;;;-2.88;62.10;99940.52;1794795;78;21458;-41
2021/12/27 08:57:09;;;;;;;24.10;11.70;;;;;;;-2.88;62.09;99938.39;1765828;78;21015;-41
2021/12/27 08:59:37;;;;;;;19.80;12.37;;;;;;;-2.95;62.33;99942.59;1761165;80;21015;-41
2021/12/27 09:02:04;;;;;;;20.05;11.95;;;;;;;-2.94;62.19;99940.73;1784030;80;21096;-41
2021/12/27 09:04:32;;;;;;;18.42;11.80;;;;;;;-3.35;62.25;99880.03;1784957;78;20945;-41
2021/12/27 09:07:00;;;;;;;19.60;11.80;;;;;;;-2.92;62.45;99933.33;1766899;78;20907;-41
2021/12/27 09:09:26;;;;;;;22.00;12.68;;;;;;;-2.89;62.77;99928.83;1804767;78;22324;-41
2021/12/27 09:11:54;;;;;;;21.05;11.55;;;;;;;-2.79;62.62;99932.87;1815728;78;21000;-39
2021/12/27 09:14:20;;;;;;;20.88;12.07;;;;;;;-2.72;62.43;99930.80;1771212;80;21151;-38
2021/12/27 09:16:48;;;;;;;22.75;11.28;;;;;;;-2.69;62.32;99927.61;1788557;80;20929;-43
2021/12/27 09:19:15;;;;;;;20.60;11.35;;;;;;;-2.58;62.13;99929.27;1776329;78;20978;-43
2021/12/27 09:21:42;;;;;;;19.25;11.12;;;;;;;-2.55;61.41;99924.75;1791198;80;21447;-43
2021/12/27 09:24:09;;;;;;;20.77;12.30;;;;;;;-2.63;61.44;99922.60;1791383;80;20964;-43
2021/12/27 09:26:35;;;;;;;19.77;11.40;;;;;;;-2.62;61.56;99924.20;1785290;80;21103;-44
2021/12/27 09:29:02;;;;;;;20.88;11.43;;;;;;;-2.55;61.87;99919.44;1789647;78;21478;-43
2021/12/27 09:31:29;;;;;;;20.80;11.68;;;;;;;-2.41;61.83;99922.41;1794749;78;20941;-42
2021/12/27 09:33:56;;;;;;;22.62;11.53;;;;;;;-2.39;61.55;99921.11;1786552;78;21015;-41
2021/12/27 09:36:23;;;;;;;20.80;12.35;;;;;;;-2.30;61.56;99928.83;1767027;81;21525;-38
2021/12/27 09:38:49;;;;;;;20.32;11.15;;;;;;;-2.23;61.26;99929.37;1766819;81;21786;-43
2021/12/27 09:41:16;;;;;;;22.62;11.55;;;;;;;-2.18;60.98;99933.13;1766839;81;21492;-43
2021/12/27 09:43:43;;;;;;;23.50;11.68;;;;;;;-2.21;60.73;99931.25;1775426;78;20955;-43
2021/12/27 09:46:11;;;;;;;18.15;11.12;;;;;;;-2.33;60.09;99939.19;1791991;78;20920;-43
2021/12/27 09:48:40;;;;;;;17.82;11.05;;;;;;;-2.64;60.32;99936.40;1766949;81;21463;-43
2021/12/27 09:51:10;;;;;;;18.15;11.63;;;;;;;-2.80;60.84;99942.67;1803481;78;21773;-43
2021/12/27 09:53:39;;;;;;;18.92;11.80;;;;;;;-3.28;61.17;99873.45;1821062;78;21046;-43
2021/12/27 09:56:09;;;;;;;22.00;11.90;;;;;;;-2.81;61.59;99937.65;1782709;78;20959;-43
2021/12/27 09:58:37;;;;;;;17.80;11.12;;;;;;;-2.73;61.77;99931.84;1761662;79;20994;-43
2021/12/27 10:01:05;;;;;;;21.97;11.48;;;;;;;-2.70;61.79;99931.31;1818990;78;20961;-43
2021/12/27 10:03:49;;;;;;;16.47;9.67;;;;;;;-2.63;61.59;99930.56;1802102;78;21144;-43
2021/12/27 10:06:19;;;;;;;19.57;11.78;;;;;;;-2.59;61.75;99934.30;1773643;78;21616;-43
2021/12/27 10:08:47;;;;;;;21.23;12.53;;;;;;;-2.45;61.51;99934.08;1796721;79;20924;-43
2021/12/27 10:11:20;;;;;;;22.60;12.03;;;;;;;-2.42;61.19;99930.13;1794497;78;21023;-43
2021/12/27 10:14:10;;;;;;;22.70;12.58;;;;;;;-2.37;61.15;99930.92;1774143;80;21025;-43
2021/12/27 10:16:44;;;;;;;21.77;12.78;;;;;;;-2.43;61.30;99931.98;1797433;78;21732;-43
2021/12/27 10:19:15;;;;;;;22.37;12.28;;;;;;;-2.47;61.53;99930.88;1798340;79;21545;-43
2021/12/27 10:21:44;;;;;;;21.42;13.53;;;;;;;-2.52;61.42;99934.88;1795490;78;20909;-43
2021/12/27 10:24:16;;;;;;;26.90;13.20;;;;;;;-2.54;61.85;99938.30;1769063;78;28075;-43
2021/12/27 10:26:46;;;;;;;20.43;11.65;;;;;;;-2.47;62.08;99942.83;1797701;78;21020;-43
2021/12/27 10:29:29;;;;;;;63.55;32.03;;;;;;;-2.39;61.52;99951.64;1797931;79;21059;-42
2021/12/27 10:32:10;;;;;;;18.32;11.85;;;;;;;-2.36;61.16;99956.42;1779601;78;20963;-43
2021/12/27 10:34:46;;;;;;;23.07;10.90;;;;;;;-2.39;60.73;99954.82;1761730;80;20948;-43
2021/12/27 10:37:26;;;;;;;35.43;16.75;;;;;;;-2.55;60.95;99948.64;1788140;80;21024;-43
2021/12/27 10:40:01;;;;;;;19.17;10.78;;;;;;;-2.73;61.07;99947.77;1782201;80;21067;-43
2021/12/27 10:42:47;;;;;;;158.80;69.12;;;;;;;-2.92;61.36;99949.25;1761426;80;21134;-43
2021/12/27 10:45:19;;;;;;;107.78;46.98;;;;;;;-3.10;61.72;99948.59;1761313;80;21023;-43
2021/12/27 10:47:54;;;;;;;227.15;121.13;;;;;;;-3.29;62.22;99947.40;1764832;80;21084;-43
2021/12/27 10:50:31;;;;;;;75.20;41.83;;;;;;;-3.44;62.40;99947.31;1776080;80;21863;-43
2021/12/27 10:53:09;;;;;;;165.47;79.25;;;;;;;-3.52;63.18;99954.38;1774229;78;21079;-43
2021/12/27 10:55:43;;;;;;;41.02;21.33;;;;;;;-3.51;63.51;99950.16;1791637;80;21927;-43
2021/12/27 10:58:20;;;;;;;21.62;11.73;;;;;;;-3.46;63.43;99948.59;1791833;80;20870;-43
2021/12/27 11:01:00;;;;;;;20.32;11.68;;;;;;;-3.42;63.44;99939.88;1777881;80;20893;-43
2021/12/27 11:03:36;;;;;;;;;;;;;;;-3.36;63.36;99932.25;1762276;80;20979;-42
2021/12/27 11:06:06;;;;;;;17.75;11.25;;;;;;;-3.28;63.61;99926.99;1773096;79;20154;-43
2021/12/27 11:08:33;;;;;;;25.27;12.23;;;;;;;-3.32;63.81;99939.97;1764044;80;21846;-43
2021/12/27 11:11:01;;;;;;;21.68;12.73;;;;;;;-3.21;63.70;99945.63;1791051;80;20972;-43
2021/12/27 11:13:28;;;;;;;23.15;11.45;;;;;;;-3.14;63.43;99938.75;1790692;80;21076;-43
2021/12/27 11:15:56;;;;;;;19.37;11.55;;;;;;;-3.04;63.26;99944.65;1768340;80;20988;-43
2021/12/27 11:18:22;;;;;;;19.42;11.05;;;;;;;-2.98;62.86;99944.96;1772433;80;21023;-43
2021/12/27 11:20:58;;;;;;;20.20;11.10;;;;;;;-3.01;62.55;99942.83;1770022;80;21933;-43
2021/12/27 11:23:26;;;;;;;19.07;11.57;;;;;;;-3.09;62.64;99942.24;1797158;79;20948;-43
2021/12/27 11:26:10;;;;;;;22.30;11.45;;;;;;;-3.15;62.62;99941.93;1794610;79;21055;-41
2021/12/27 11:28:44;;;;;;;21.40;11.80;;;;;;;-3.24;62.82;99944.78;1791795;80;21511;-41
2021/12/27 11:31:17;;;;;;;20.75;12.30;;;;;;;-3.28;63.00;99934.95;1760232;81;21023;-41